createdAt,value
2018-10-07T00:01:21.446Z,94.47
2018-10-07T00:03:23.451Z,94.35
2018-10-07T00:05:25.468Z,91.80
2018-10-07T00:07:27.456Z,88.47
2018-10-07T00:09:29.481Z,91.70
2018-10-07T00:11:31.507Z,93.20
2018-10-07T00:13:33.489Z,90.72
2018-10-07T00:15:35.477Z,87.90
2018-10-07T00:17:37.529Z,86.40
2018-10-07T00:19:39.513Z,89.20
2018-10-07T00:21:41.532Z,85.80
2018-10-07T00:23:43.579Z,86.10
2018-10-07T00:25:45.564Z,82.08
2018-10-07T00:27:47.537Z,87.88
2018-10-07T00:29:49.571Z,85.65
2018-10-07T00:31:51.589Z,77.35
2018-10-07T00:33:53.635Z,82.95
2018-10-07T00:35:55.620Z,82.60
2018-10-07T00:37:57.553Z,84.37
2018-10-07T00:39:59.586Z,83.37
2018-10-07T00:42:01.604Z,79.85
2018-10-07T00:44:03.642Z,80.72
2018-10-07T00:46:05.642Z,80.05
2018-10-07T00:48:07.680Z,80.05
2018-10-07T00:50:09.676Z,78.22
2018-10-07T00:52:11.670Z,78.80
2018-10-07T00:54:13.684Z,79.53
2018-10-07T00:56:15.670Z,71.15
2018-10-07T00:58:17.704Z,78.65
2018-10-07T01:00:19.692Z,77.15
2018-10-07T01:02:21.717Z,76.67
2018-10-07T01:04:23.692Z,72.50
2018-10-07T01:06:25.712Z,76.07
2018-10-07T01:08:27.682Z,72.58
2018-10-07T01:10:29.720Z,76.75
2018-10-07T01:12:31.731Z,72.75
2018-10-07T01:14:33.732Z,72.87
2018-10-07T01:16:35.724Z,73.45
2018-10-07T01:18:37.728Z,71.45
2018-10-07T01:20:39.725Z,73.70
2018-10-07T01:22:41.714Z,73.67
2018-10-07T01:24:43.754Z,73.25
2018-10-07T01:26:45.722Z,73.70
2018-10-07T01:28:47.736Z,70.22
2018-10-07T01:30:49.779Z,72.87
2018-10-07T01:32:51.815Z,75.37
2018-10-07T01:34:53.809Z,68.20
2018-10-07T01:36:55.837Z,64.92
2018-10-07T01:38:57.794Z,72.03
2018-10-07T01:40:59.756Z,66.80
2018-10-07T01:43:01.760Z,67.10
2018-10-07T01:45:03.742Z,67.42
2018-10-07T01:47:05.766Z,64.70
2018-10-07T01:49:07.777Z,60.75
2018-10-07T01:51:09.755Z,67.58
2018-10-07T01:53:11.782Z,66.17
2018-10-07T01:55:13.801Z,59.93
2018-10-07T01:57:15.778Z,56.63
2018-10-07T01:59:17.748Z,59.03
2018-10-07T02:01:19.754Z,61.08
2018-10-07T02:03:21.766Z,68.72
2018-10-07T02:05:23.744Z,66.82
2018-10-07T02:07:25.759Z,62.40
2018-10-07T02:09:27.787Z,60.65
2018-10-07T02:11:29.766Z,60.75
2018-10-07T02:13:31.790Z,63.08
2018-10-07T02:15:33.780Z,60.50
2018-10-07T02:17:35.743Z,60.23
2018-10-07T02:19:37.744Z,57.27
2018-10-07T02:21:39.724Z,56.42
2018-10-07T02:23:41.747Z,64.80
2018-10-07T02:25:43.768Z,59.10
2018-10-07T02:27:45.750Z,61.23
2018-10-07T02:29:47.764Z,63.87
2018-10-07T02:31:49.757Z,62.08
2018-10-07T02:33:51.732Z,64.90
2018-10-07T02:35:53.744Z,62.55
2018-10-07T02:37:55.710Z,55.70
2018-10-07T02:39:57.739Z,61.45
2018-10-07T02:41:59.723Z,60.70
2018-10-07T02:44:01.722Z,58.73
2018-10-07T02:46:03.734Z,55.67
2018-10-07T02:48:05.720Z,59.85
2018-10-07T02:50:07.696Z,57.95
2018-10-07T02:52:09.696Z,58.17
2018-10-07T02:54:11.721Z,55.38
2018-10-07T02:56:13.680Z,51.70
2018-10-07T02:58:15.676Z,55.35
2018-10-07T03:00:17.696Z,54.70
2018-10-07T03:02:19.709Z,57.50
2018-10-07T03:04:21.730Z,55.63
2018-10-07T03:06:23.731Z,54.05
2018-10-07T03:08:25.733Z,54.10
2018-10-07T03:10:27.736Z,52.65
2018-10-07T03:12:29.758Z,50.52
2018-10-07T03:14:31.732Z,54.53
2018-10-07T03:16:33.746Z,53.98
2018-10-07T03:18:35.760Z,53.42
2018-10-07T03:20:37.767Z,52.13
2018-10-07T03:22:39.775Z,50.92
2018-10-07T03:24:41.753Z,48.38
2018-10-07T03:26:43.775Z,51.48
2018-10-07T03:28:45.750Z,51.58
2018-10-07T03:30:47.764Z,48.38
2018-10-07T03:32:49.771Z,49.98
2018-10-07T03:34:51.758Z,49.05
2018-10-07T03:36:53.749Z,49.58
2018-10-07T03:38:55.776Z,44.88
2018-10-07T03:40:57.753Z,44.45
2018-10-07T03:42:59.736Z,46.80
2018-10-07T03:45:01.752Z,47.55
2018-10-07T03:47:03.735Z,41.48
2018-10-07T03:49:05.734Z,43.40
2018-10-07T03:51:07.706Z,45.38
2018-10-07T03:53:09.720Z,42.55
2018-10-07T03:55:11.707Z,44.75
2018-10-07T03:57:13.730Z,42.20
2018-10-07T03:59:15.698Z,42.17
2018-10-07T04:01:17.673Z,42.67
2018-10-07T04:03:19.686Z,41.18
2018-10-07T04:05:21.660Z,40.38
2018-10-07T04:07:23.670Z,40.08
2018-10-07T04:09:25.639Z,37.10
2018-10-07T04:11:27.648Z,39.13
2018-10-07T04:13:29.672Z,39.13
2018-10-07T04:15:31.645Z,40.60
2018-10-07T04:17:33.638Z,38.75
2018-10-07T04:19:35.632Z,37.73
2018-10-07T04:21:37.622Z,37.17
2018-10-07T04:23:39.635Z,37.42
2018-10-07T04:25:41.611Z,37.50
2018-10-07T04:27:43.616Z,35.65
2018-10-07T04:29:45.616Z,36.10
2018-10-07T04:31:47.601Z,35.70
2018-10-07T04:33:49.583Z,34.88
2018-10-07T04:35:51.571Z,35.30
2018-10-07T04:37:53.621Z,33.55
2018-10-07T04:39:55.696Z,31.00
2018-10-07T04:41:57.588Z,33.23
2018-10-07T04:43:59.597Z,30.40
2018-10-07T04:46:01.839Z,31.62
2018-10-07T04:48:03.821Z,31.77
2018-10-07T04:50:05.828Z,29.72
2018-10-07T04:52:07.850Z,30.37
2018-10-07T04:54:09.860Z,28.85
2018-10-07T04:56:11.834Z,29.18
2018-10-07T04:58:13.858Z,27.98
2018-10-07T05:00:15.912Z,28.17
2018-10-07T05:02:18.188Z,25.88
2018-10-07T05:04:20.230Z,26.50
2018-10-07T05:06:22.204Z,27.80
2018-10-07T05:08:24.231Z,25.88
2018-10-07T05:10:26.196Z,26.55
2018-10-07T05:12:28.208Z,24.95
2018-10-07T05:14:30.184Z,25.75
2018-10-07T05:16:32.231Z,26.05
2018-10-07T05:18:34.224Z,23.95
2018-10-07T05:20:36.221Z,24.23
2018-10-07T05:22:38.249Z,23.00
2018-10-07T05:24:40.273Z,23.70
2018-10-07T05:26:42.254Z,25.20
2018-10-07T05:28:44.262Z,23.45
2018-10-07T05:30:46.259Z,24.75
2018-10-07T05:32:48.297Z,21.12
2018-10-07T05:34:50.264Z,22.52
2018-10-07T05:36:52.268Z,23.65
2018-10-07T05:38:54.269Z,22.50
2018-10-07T05:40:56.261Z,21.07
2018-10-07T05:42:58.283Z,22.17
2018-10-07T05:45:00.314Z,22.05
2018-10-07T05:47:02.315Z,21.20
2018-10-07T05:49:04.303Z,21.50
2018-10-07T05:51:06.278Z,20.68
2018-10-07T05:53:08.303Z,21.17
2018-10-07T05:55:10.272Z,20.25
2018-10-07T05:57:12.246Z,19.17
2018-10-07T05:59:14.263Z,20.02
2018-10-07T06:01:16.238Z,20.62
2018-10-07T06:03:18.263Z,17.70
2018-10-07T06:05:20.249Z,17.98
2018-10-07T06:07:22.251Z,18.40
2018-10-07T06:09:24.256Z,18.35
2018-10-07T06:11:26.269Z,17.55
2018-10-07T06:13:28.271Z,18.23
2018-10-07T06:15:30.261Z,17.42
2018-10-07T06:17:32.239Z,17.67
2018-10-07T06:19:34.262Z,16.95
2018-10-07T06:21:36.279Z,18.32
2018-10-07T06:23:38.238Z,16.10
2018-10-07T06:25:40.597Z,17.23
2018-10-07T06:27:42.577Z,16.93
2018-10-07T06:29:44.538Z,15.68
2018-10-07T06:31:46.628Z,15.83
2018-10-07T06:33:48.587Z,16.15
2018-10-07T06:35:50.613Z,15.63
2018-10-07T06:37:52.577Z,15.28
2018-10-07T06:39:54.559Z,16.02
2018-10-07T06:41:56.616Z,14.40
2018-10-07T06:43:58.590Z,14.47
2018-10-07T06:46:00.613Z,13.88
2018-10-07T06:48:02.619Z,14.33
2018-10-07T06:50:04.606Z,14.85
2018-10-07T06:52:06.629Z,13.78
2018-10-07T06:54:08.617Z,15.98
2018-10-07T06:56:10.626Z,15.23
2018-10-07T06:58:12.664Z,15.35
2018-10-07T07:00:14.636Z,14.70
2018-10-07T07:02:16.653Z,13.88
2018-10-07T07:04:18.641Z,14.58
2018-10-07T07:06:20.726Z,15.10
2018-10-07T07:08:22.714Z,15.65
2018-10-07T07:10:24.733Z,14.25
2018-10-07T07:12:26.722Z,13.93
2018-10-07T07:14:28.742Z,13.50
2018-10-07T07:16:30.733Z,12.80
2018-10-07T07:18:32.752Z,13.35
2018-10-07T07:20:34.703Z,14.13
2018-10-07T07:22:36.699Z,18.50
2018-10-07T07:24:38.711Z,37.63
2018-10-07T07:26:40.722Z,46.50
2018-10-07T07:28:42.730Z,92.70
2018-10-07T07:30:44.773Z,85.42
2018-10-07T07:32:46.758Z,78.00
2018-10-07T07:34:48.737Z,90.28
2018-10-07T07:36:50.822Z,95.40
2018-10-07T07:38:53.029Z,97.33
2018-10-07T07:40:55.050Z,102.95
2018-10-07T07:42:57.103Z,97.62
2018-10-07T07:44:59.132Z,94.55
2018-10-07T07:47:01.111Z,88.65
2018-10-07T07:49:03.119Z,93.35
2018-10-07T07:51:05.112Z,92.25
2018-10-07T07:53:07.140Z,89.37
2018-10-07T07:55:09.580Z,88.12
2018-10-07T07:57:11.617Z,86.82
2018-10-07T07:59:13.618Z,81.67
2018-10-07T08:01:15.602Z,82.45
2018-10-07T08:03:17.626Z,80.67
2018-10-07T08:05:19.606Z,79.58
2018-10-07T08:07:21.630Z,82.62
2018-10-07T08:09:23.658Z,111.12
2018-10-07T08:11:25.677Z,133.18
2018-10-07T08:13:27.730Z,151.63
2018-10-07T08:15:29.746Z,126.97
2018-10-07T08:17:31.834Z,154.50
2018-10-07T08:19:33.782Z,169.35
2018-10-07T08:21:35.794Z,147.22
2018-10-07T08:23:37.786Z,147.50
2018-10-07T08:25:39.796Z,145.97
2018-10-07T08:27:41.793Z,150.12
2018-10-07T08:29:43.847Z,143.02
2018-10-07T08:31:45.776Z,163.07
2018-10-07T08:33:47.772Z,189.50
2018-10-07T08:35:49.832Z,185.80
2018-10-07T08:37:51.821Z,226.65
2018-10-07T08:39:53.824Z,187.07
2018-10-07T08:41:55.861Z,205.90
2018-10-07T08:43:57.850Z,199.00
2018-10-07T08:45:59.873Z,211.57
2018-10-07T08:48:01.898Z,199.27
2018-10-07T08:50:03.889Z,200.72
2018-10-07T08:52:05.957Z,198.78
2018-10-07T08:54:07.949Z,202.95
2018-10-07T08:56:10.117Z,196.32
2018-10-07T08:58:11.981Z,470.23
2018-10-07T09:00:13.976Z,179.23
2018-10-07T09:02:15.960Z,189.50
2018-10-07T09:04:17.996Z,30.68
2018-10-07T09:06:20.001Z,13.98
2018-10-07T09:08:21.932Z,7.22
2018-10-07T09:10:23.964Z,5.65
2018-10-07T09:12:25.975Z,4.80
2018-10-07T09:14:27.916Z,4.47
2018-10-07T09:16:29.860Z,218.12
2018-10-07T09:18:31.864Z,168.90
2018-10-07T09:20:33.893Z,107.47
2018-10-07T09:22:35.852Z,30.08
2018-10-07T09:24:37.802Z,161.37
2018-10-07T09:26:39.808Z,348.85
2018-10-07T09:28:42.475Z,150.85
2018-10-07T09:30:44.490Z,49.35
2018-10-07T09:32:46.604Z,18.05
2018-10-07T09:34:49.067Z,324.40
2018-10-07T09:36:51.105Z,178.90
2018-10-07T09:38:53.101Z,76.15
2018-10-07T09:40:55.134Z,26.05
2018-10-07T09:42:57.166Z,19.92
2018-10-07T09:44:59.143Z,8.00
2018-10-07T09:47:01.128Z,4.53
2018-10-07T09:49:03.146Z,44.13
2018-10-07T09:51:05.134Z,27.67
2018-10-07T09:53:07.101Z,31.30
2018-10-07T09:55:09.123Z,14.83
2018-10-07T09:57:11.133Z,166.62
2018-10-07T09:59:13.151Z,42.40
2018-10-07T10:01:15.180Z,105.32
2018-10-07T10:03:17.159Z,25.68
2018-10-07T10:05:19.174Z,21.20
2018-10-07T10:07:21.163Z,29.98
2018-10-07T10:09:23.149Z,19.77
2018-10-07T10:11:25.208Z,16.52
2018-10-07T10:13:27.153Z,62.25
2018-10-07T10:15:29.182Z,132.00
2018-10-07T10:17:31.176Z,48.63
2018-10-07T10:19:33.235Z,159.03
2018-10-07T10:21:40.852Z,68.00
2018-10-07T10:23:48.263Z,21.85
2018-10-07T10:25:55.977Z,11.12
2018-10-07T10:28:03.524Z,13.70
2018-10-07T10:30:11.157Z,17.82
2018-10-07T10:32:19.057Z,32.83
2018-10-07T10:34:21.067Z,19.32
2018-10-07T10:36:28.511Z,16.20
2018-10-07T10:38:36.120Z,5.10
2018-10-07T10:40:43.902Z,87.40
2018-10-07T10:42:51.381Z,47.15
2018-10-07T10:44:53.366Z,21.25
2018-10-07T10:46:55.379Z,12.03
2018-10-07T10:48:57.360Z,11.68
2018-10-07T10:50:59.385Z,88.17
2018-10-07T10:53:01.394Z,72.62
2018-10-07T10:55:03.414Z,20.77
2018-10-07T10:57:05.371Z,11.68
2018-10-07T10:59:07.390Z,6.28
2018-10-07T11:01:09.372Z,6.05
2018-10-07T11:03:11.345Z,540.83
2018-10-07T11:05:13.399Z,505.52
2018-10-07T11:07:15.389Z,56.45
2018-10-07T11:09:17.474Z,13.58
2018-10-07T11:11:19.375Z,10.03
2018-10-07T11:13:21.405Z,6.70
2018-10-07T11:15:23.479Z,11.80
2018-10-07T11:17:25.487Z,33.13
2018-10-07T11:19:27.493Z,17.55
2018-10-07T11:21:29.898Z,6.42
2018-10-07T11:23:31.867Z,8.90
2018-10-07T11:25:33.837Z,4.80
2018-10-07T11:27:35.857Z,4.28
2018-10-07T11:29:37.906Z,13.40
2018-10-07T11:31:39.895Z,22.87
2018-10-07T11:33:41.867Z,17.42
2018-10-07T11:35:43.896Z,12.82
2018-10-07T11:37:45.867Z,12.40
2018-10-07T11:39:47.880Z,8.15
2018-10-07T11:41:49.849Z,7.78
2018-10-07T11:43:51.814Z,2.75
2018-10-07T11:45:53.828Z,3.10
2018-10-07T11:47:55.837Z,4.37
2018-10-07T11:49:57.815Z,5.47
2018-10-07T11:51:59.831Z,1.90
2018-10-07T11:54:01.825Z,2.92
2018-10-07T11:56:03.859Z,1.30
2018-10-07T11:58:05.873Z,1.50
2018-10-07T12:00:07.937Z,1.17
2018-10-07T12:02:09.919Z,1.15
2018-10-07T12:04:11.918Z,0.78
2018-10-07T12:06:13.892Z,0.80
2018-10-07T12:08:15.912Z,1.80
2018-10-07T12:10:18.024Z,1.50
2018-10-07T12:12:19.937Z,1.90
2018-10-07T12:14:21.922Z,79.05
2018-10-07T12:16:23.966Z,118.13
2018-10-07T12:18:26.369Z,36.03
2018-10-07T12:20:28.379Z,20.12
2018-10-07T12:22:30.402Z,27.65
2018-10-07T12:24:32.428Z,68.22
2018-10-07T12:26:34.426Z,60.17
2018-10-07T12:28:36.416Z,27.60
2018-10-07T12:30:38.418Z,36.13
2018-10-07T12:32:40.410Z,65.08
2018-10-07T12:34:42.408Z,38.42
2018-10-07T12:36:44.431Z,69.82
2018-10-07T12:38:46.409Z,29.98
2018-10-07T12:40:48.410Z,20.30
2018-10-07T12:42:50.474Z,23.45
2018-10-07T12:44:52.436Z,21.40
2018-10-07T12:46:54.413Z,16.62
2018-10-07T12:48:56.426Z,112.45
2018-10-07T12:50:58.432Z,56.33
2018-10-07T12:53:00.451Z,21.75
2018-10-07T12:55:02.477Z,11.43
2018-10-07T12:57:04.442Z,10.00
2018-10-07T12:59:06.451Z,14.40
2018-10-07T13:01:08.433Z,10.38
2018-10-07T13:03:10.404Z,11.28
2018-10-07T13:05:12.430Z,5.37
2018-10-07T13:07:14.431Z,8.35
2018-10-07T13:09:16.442Z,8.28
2018-10-07T13:11:18.467Z,5.40
2018-10-07T13:13:20.437Z,4.85
2018-10-07T13:15:22.413Z,4.85
2018-10-07T13:17:24.440Z,2.87
2018-10-07T13:19:26.429Z,2.37
2018-10-07T13:21:28.431Z,4.35
2018-10-07T13:23:30.427Z,2.92
2018-10-07T13:25:32.434Z,2.47
2018-10-07T13:27:34.753Z,3.27
2018-10-07T13:29:36.730Z,3.55
2018-10-07T13:31:38.741Z,1.60
2018-10-07T13:33:40.810Z,1.25
2018-10-07T13:35:42.757Z,0.80
2018-10-07T13:37:44.768Z,1.10
2018-10-07T13:39:46.783Z,16.07
2018-10-07T13:41:48.736Z,53.75
2018-10-07T13:43:50.747Z,74.15
2018-10-07T13:45:52.907Z,60.95
2018-10-07T13:47:54.948Z,31.48
2018-10-07T13:49:56.933Z,11.22
2018-10-07T13:51:58.955Z,17.62
2018-10-07T13:54:00.941Z,7.08
2018-10-07T13:56:02.965Z,4.78
2018-10-07T13:58:04.949Z,4.95
2018-10-07T14:00:06.913Z,5.83
2018-10-07T14:02:08.940Z,3.20
2018-10-07T14:04:10.915Z,2.98
2018-10-07T14:06:13.335Z,2.52
2018-10-07T14:08:15.350Z,2.42
2018-10-07T14:10:17.360Z,1.37
2018-10-07T14:12:19.335Z,1.85
2018-10-07T14:14:21.392Z,2.45
2018-10-07T14:16:23.421Z,1.22
2018-10-07T14:18:25.413Z,1.57
2018-10-07T14:20:27.435Z,1.35
2018-10-07T14:22:29.419Z,2.10
2018-10-07T14:24:31.423Z,1.22
2018-10-07T14:26:33.449Z,1.30
2018-10-07T14:28:35.435Z,1.60
2018-10-07T14:30:37.419Z,1.00
2018-10-07T14:32:39.436Z,1.70
2018-10-07T14:34:41.396Z,1.00
2018-10-07T14:36:43.363Z,0.82
2018-10-07T14:38:45.376Z,1.00
2018-10-07T14:40:47.362Z,0.85
2018-10-07T14:42:49.344Z,1.05
2018-10-07T14:44:51.350Z,1.07
2018-10-07T14:46:53.326Z,1.40
2018-10-07T14:48:55.309Z,0.85
2018-10-07T14:50:57.307Z,1.12
2018-10-07T14:52:59.301Z,1.42
2018-10-07T14:55:01.355Z,3.60
2018-10-07T14:57:03.384Z,3.20
2018-10-07T14:59:05.402Z,2.33
2018-10-07T15:01:07.431Z,3.80
2018-10-07T15:03:09.420Z,454.72
2018-10-07T15:05:11.454Z,37.28
2018-10-07T15:07:13.441Z,199.23
2018-10-07T15:09:15.550Z,75.00
2018-10-07T15:11:17.531Z,37.85
2018-10-07T15:13:19.561Z,11.40
2018-10-07T15:15:21.579Z,639.70
2018-10-07T15:17:23.572Z,281.15
2018-10-07T15:19:25.609Z,133.15
2018-10-07T15:21:27.580Z,29.30
2018-10-07T15:23:29.601Z,408.80
2018-10-07T15:25:31.592Z,169.53
2018-10-07T15:27:33.622Z,214.25
2018-10-07T15:29:35.647Z,80.38
2018-10-07T15:31:37.562Z,15.43
2018-10-07T15:33:39.577Z,7.42
2018-10-07T15:35:41.638Z,5.97
2018-10-07T15:37:43.573Z,5.15
2018-10-07T15:39:45.581Z,2.90
2018-10-07T15:41:47.642Z,3.25
2018-10-07T15:43:49.606Z,3.62
2018-10-07T15:45:51.608Z,2.10
2018-10-07T15:47:53.611Z,2.92
2018-10-07T15:49:55.588Z,2.27
2018-10-07T15:51:57.601Z,67.80
2018-10-07T15:53:59.665Z,171.53
2018-10-07T15:56:01.753Z,113.12
2018-10-07T15:58:03.784Z,26.68
2018-10-07T16:00:05.770Z,8.75
2018-10-07T16:02:07.778Z,4.65
2018-10-07T16:04:09.735Z,2.90
2018-10-07T16:06:11.714Z,3.10
2018-10-07T16:08:13.736Z,2.42
2018-10-07T16:10:15.723Z,2.72
2018-10-07T16:12:17.709Z,127.78
2018-10-07T16:14:19.745Z,74.50
2018-10-07T16:16:21.755Z,165.03
2018-10-07T16:18:23.779Z,178.38
2018-10-07T16:20:25.742Z,166.70
2018-10-07T16:22:27.746Z,188.97
2018-10-07T16:24:29.835Z,182.50
2018-10-07T16:26:31.827Z,221.18
2018-10-07T16:28:33.866Z,254.15
2018-10-07T16:30:35.860Z,316.98
2018-10-07T16:32:37.862Z,287.60
2018-10-07T16:34:39.890Z,292.43
2018-10-07T16:36:41.887Z,293.30
2018-10-07T16:38:43.875Z,311.82
2018-10-07T16:40:45.898Z,295.60
2018-10-07T16:42:47.890Z,291.20
2018-10-07T16:44:49.907Z,291.17
2018-10-07T16:46:51.946Z,278.92
2018-10-07T16:48:53.972Z,260.93
2018-10-07T16:50:56.000Z,262.93
2018-10-07T16:52:58.030Z,248.68
2018-10-07T16:55:00.034Z,240.80
2018-10-07T16:57:02.059Z,224.67
2018-10-07T16:59:04.044Z,232.47
2018-10-07T17:01:06.093Z,221.25
2018-10-07T17:03:08.086Z,220.82
2018-10-07T17:05:10.084Z,223.65
2018-10-07T17:07:12.108Z,234.87
2018-10-07T17:09:14.104Z,206.47
2018-10-07T17:11:16.124Z,207.77
2018-10-07T17:13:18.168Z,207.25
2018-10-07T17:15:20.154Z,207.55
2018-10-07T17:17:22.141Z,234.18
2018-10-07T17:19:24.175Z,263.68
2018-10-07T17:21:26.154Z,253.50
2018-10-07T17:23:28.199Z,274.15
2018-10-07T17:25:30.261Z,250.72
2018-10-07T17:27:32.291Z,261.50
2018-10-07T17:29:34.284Z,244.35
2018-10-07T17:31:36.303Z,289.17
2018-10-07T17:33:38.293Z,315.85
2018-10-07T17:35:40.282Z,325.62
2018-10-07T17:37:42.303Z,332.32
2018-10-07T17:39:44.330Z,322.98
2018-10-07T17:41:46.363Z,325.13
2018-10-07T17:43:48.349Z,337.30
2018-10-07T17:45:50.348Z,332.87
2018-10-07T17:47:52.379Z,323.80
2018-10-07T17:49:54.363Z,321.43
2018-10-07T17:51:56.363Z,311.43
2018-10-07T17:53:58.376Z,319.68
2018-10-07T17:56:00.357Z,311.80
2018-10-07T17:58:02.372Z,294.77
2018-10-07T18:00:04.414Z,300.20
2018-10-07T18:02:06.398Z,285.75
2018-10-07T18:04:08.416Z,275.55
2018-10-07T18:06:10.400Z,270.97
2018-10-07T18:08:12.439Z,284.35
2018-10-07T18:10:14.426Z,281.38
2018-10-07T18:12:16.436Z,283.57
2018-10-07T18:14:18.529Z,272.37
2018-10-07T18:16:20.539Z,443.48
2018-10-07T18:18:22.595Z,317.13
2018-10-07T18:20:24.597Z,348.18
2018-10-07T18:22:26.611Z,406.70
2018-10-07T18:24:28.650Z,370.85
2018-10-07T18:26:30.629Z,364.72
2018-10-07T18:28:32.637Z,363.98
2018-10-07T18:30:34.638Z,409.20
2018-10-07T18:32:36.637Z,416.50
2018-10-07T18:34:38.694Z,463.72
2018-10-07T18:36:40.660Z,458.12
2018-10-07T18:38:42.695Z,468.52
2018-10-07T18:40:44.703Z,454.32
2018-10-07T18:42:46.717Z,446.33
2018-10-07T18:44:48.697Z,442.03
2018-10-07T18:46:50.730Z,448.60
2018-10-07T18:48:52.868Z,441.73
2018-10-07T18:50:54.759Z,435.95
2018-10-07T18:52:56.790Z,446.55
2018-10-07T18:54:59.051Z,409.75
2018-10-07T18:57:01.077Z,411.28
2018-10-07T18:59:03.083Z,425.40
2018-10-07T19:01:05.127Z,441.92
2018-10-07T19:03:07.161Z,452.15
2018-10-07T19:05:09.198Z,483.30
2018-10-07T19:07:11.185Z,497.82
2018-10-07T19:09:13.262Z,490.90
2018-10-07T19:11:15.234Z,505.35
2018-10-07T19:13:17.213Z,503.23
2018-10-07T19:15:19.265Z,506.63
2018-10-07T19:17:21.281Z,509.90
2018-10-07T19:19:23.262Z,532.65
2018-10-07T19:21:25.379Z,546.05
2018-10-07T19:23:27.287Z,549.62
2018-10-07T19:25:29.275Z,553.70
2018-10-07T19:27:31.287Z,567.12
2018-10-07T19:29:33.358Z,542.20
2018-10-07T19:31:35.338Z,538.63
2018-10-07T19:33:37.326Z,520.38
2018-10-07T19:35:39.343Z,540.10
2018-10-07T19:37:41.365Z,541.45
2018-10-07T19:39:44.342Z,519.30
2018-10-07T19:41:46.370Z,518.80
2018-10-07T19:43:48.422Z,512.95
2018-10-07T19:45:50.402Z,503.42
2018-10-07T19:47:52.419Z,504.62
2018-10-07T19:49:54.536Z,498.35
2018-10-07T19:51:56.519Z,496.93
2018-10-07T19:53:58.604Z,504.80
2018-10-07T19:56:00.590Z,496.40
2018-10-07T19:58:02.606Z,499.52
2018-10-07T20:00:04.605Z,496.77
2018-10-07T20:02:06.585Z,491.25
2018-10-07T20:04:08.604Z,491.10
2018-10-07T20:06:10.624Z,501.35
2018-10-07T20:08:12.653Z,521.95
2018-10-07T20:10:14.658Z,565.80
2018-10-07T20:12:16.638Z,560.78
2018-10-07T20:14:18.628Z,558.00
2018-10-07T20:16:20.641Z,576.90
2018-10-07T20:18:22.706Z,582.50
2018-10-07T20:20:24.640Z,544.17
2018-10-07T20:22:26.720Z,548.25
2018-10-07T20:24:28.754Z,590.35
2018-10-07T20:26:30.759Z,547.58
2018-10-07T20:28:32.789Z,580.48
2018-10-07T20:30:34.781Z,584.17
2018-10-07T20:32:36.777Z,603.77
2018-10-07T20:34:38.812Z,610.90
2018-10-07T20:36:40.802Z,595.38
2018-10-07T20:38:42.822Z,597.25
2018-10-07T20:40:44.964Z,612.17
2018-10-07T20:42:46.920Z,605.73
2018-10-07T20:44:48.887Z,658.53
2018-10-07T20:46:50.940Z,622.25
2018-10-07T20:48:52.910Z,640.65
2018-10-07T20:50:54.923Z,665.35
2018-10-07T20:52:56.962Z,666.70
2018-10-07T20:54:58.941Z,651.98
2018-10-07T20:57:00.925Z,643.30
2018-10-07T20:59:02.958Z,675.33
2018-10-07T21:01:04.927Z,645.52
2018-10-07T21:03:06.938Z,644.45
2018-10-07T21:05:08.951Z,620.77
2018-10-07T21:07:10.931Z,620.10
2018-10-07T21:09:12.961Z,623.85
2018-10-07T21:11:14.895Z,635.20
2018-10-07T21:13:16.887Z,633.12
2018-10-07T21:15:18.910Z,660.30
2018-10-07T21:17:20.907Z,654.10
2018-10-07T21:19:22.925Z,667.72
2018-10-07T21:21:24.913Z,648.92
2018-10-07T21:23:26.975Z,698.05
2018-10-07T21:25:29.026Z,700.55
2018-10-07T21:27:31.022Z,685.00
2018-10-07T21:29:33.023Z,686.75
2018-10-07T21:31:35.007Z,692.40
2018-10-07T21:33:37.090Z,692.83
2018-10-07T21:35:39.111Z,661.20
2018-10-07T21:37:41.140Z,693.05
2018-10-07T21:39:43.123Z,661.75
2018-10-07T21:41:45.367Z,685.42
2018-10-07T21:43:47.171Z,673.40
2018-10-07T21:45:49.193Z,661.95
2018-10-07T21:47:51.214Z,669.92
2018-10-07T21:49:53.247Z,670.92
2018-10-07T21:51:55.223Z,653.27
2018-10-07T21:53:57.206Z,657.77
2018-10-07T21:55:59.276Z,657.75
2018-10-07T21:58:01.220Z,668.97
2018-10-07T22:00:03.212Z,658.67
2018-10-07T22:02:05.219Z,666.30
2018-10-07T22:04:07.203Z,647.33
2018-10-07T22:06:09.193Z,664.55
2018-10-07T22:08:11.273Z,643.00
2018-10-07T22:10:13.251Z,673.00
2018-10-07T22:12:15.277Z,672.85
2018-10-07T22:14:17.244Z,663.72
2018-10-07T22:16:19.243Z,634.48
2018-10-07T22:18:21.256Z,637.27
2018-10-07T22:20:23.253Z,639.25
2018-10-07T22:22:25.280Z,633.98
2018-10-07T22:24:27.303Z,624.92
2018-10-07T22:26:29.268Z,661.92
2018-10-07T22:28:31.287Z,623.42
2018-10-07T22:30:33.272Z,645.35
2018-10-07T22:32:35.268Z,626.02
2018-10-07T22:34:37.308Z,629.48
2018-10-07T22:36:39.270Z,633.70
2018-10-07T22:38:41.288Z,618.00
2018-10-07T22:40:43.305Z,615.67
2018-10-07T22:42:45.276Z,613.17
2018-10-07T22:44:47.270Z,626.92
2018-10-07T22:46:49.312Z,616.50
2018-10-07T22:48:51.298Z,638.42
2018-10-07T22:50:53.311Z,628.10
2018-10-07T22:52:55.315Z,577.33
2018-10-07T22:54:57.326Z,608.62
2018-10-07T22:56:59.337Z,689.78
2018-10-07T22:59:01.328Z,608.48
2018-10-07T23:01:03.315Z,665.88
2018-10-07T23:03:05.336Z,602.78
2018-10-07T23:05:07.316Z,614.48
2018-10-07T23:07:09.322Z,633.42
2018-10-07T23:09:11.350Z,612.98
2018-10-07T23:11:13.366Z,618.30
2018-10-07T23:13:15.344Z,623.55
2018-10-07T23:15:17.316Z,653.38
2018-10-07T23:17:19.311Z,644.95
2018-10-07T23:19:21.348Z,610.55
2018-10-07T23:21:23.420Z,621.25
2018-10-07T23:23:25.393Z,622.17
2018-10-07T23:25:27.422Z,587.12
2018-10-07T23:27:29.461Z,600.38
2018-10-07T23:29:31.461Z,582.08
2018-10-07T23:31:33.456Z,596.10
2018-10-07T23:33:35.458Z,596.70
2018-10-07T23:35:37.466Z,604.45
2018-10-07T23:37:39.460Z,575.92
2018-10-07T23:39:41.475Z,580.42
2018-10-07T23:41:43.456Z,585.90
2018-10-07T23:43:45.468Z,595.67
2018-10-07T23:45:47.495Z,590.15
2018-10-07T23:47:49.464Z,576.77
2018-10-07T23:49:51.492Z,570.70
2018-10-07T23:51:53.472Z,571.20
2018-10-07T23:53:55.486Z,565.33
2018-10-07T23:55:57.456Z,572.67
2018-10-07T23:57:59.472Z,555.77
